Mc Caysville, Georgia
Current Conditions -  °F | °C
As of 11:15 AM on Thursday 18 Dec 2014 (Local Time) from KRZR Reporting Station
Scattered Clouds Scattered Clouds  
Wind Chill: 34°   Ceiling: Unl
Heat Index: 37°   Visibility: 10mi
Dew Point: 30°   Wind: 5mph
Humidity: 75%   Direction: 20°NNE
Pressure: 30.2"   Gusts: NA
Location:  34.9342°N, 84.3792°W
Report Text: KRZR 181615Z AUTO 02004KT 10SM SCT065 03/M01 A3020 RMK
Loading
Personal Weather Stations






























Interactive Weather Map New forecast layout! Learn more

10-Day Weather Forecast

Advertisements
Track Severe Weather on mobile